sensor_id;sensor_type;location;lat;lon;timestamp;pressure;altitude;pressure_sealevel;temperature;humidity
40285;BME280;25997;50.214;19.354;2022-10-16T00:00:07;97982.59;;;15.12;46.14
40285;BME280;25997;50.214;19.354;2022-10-16T00:03:12;97985.28;;;15.16;45.89
40285;BME280;25997;50.214;19.354;2022-10-16T00:06:15;97986.16;;;15.15;45.90
40285;BME280;25997;50.214;19.354;2022-10-16T00:09:18;97992.31;;;15.14;46.33
40285;BME280;25997;50.214;19.354;2022-10-16T00:12:21;97994.06;;;15.14;46.31
40285;BME280;25997;50.214;19.354;2022-10-16T00:15:24;97994.06;;;15.14;46.34
40285;BME280;25997;50.214;19.354;2022-10-16T00:18:28;98003.81;;;15.18;46.45
40285;BME280;25997;50.214;19.354;2022-10-16T00:21:32;98007.31;;;15.18;46.06
40285;BME280;25997;50.214;19.354;2022-10-16T00:24:36;98006.41;;;15.10;46.57
40285;BME280;25997;50.214;19.354;2022-10-16T00:27:39;98002.03;;;15.17;46.46
40285;BME280;25997;50.214;19.354;2022-10-16T00:30:41;98004.78;;;15.32;46.19
40285;BME280;25997;50.214;19.354;2022-10-16T00:33:46;98005.72;;;15.41;45.77
40285;BME280;25997;50.214;19.354;2022-10-16T00:36:48;98011.91;;;15.45;45.85
40285;BME280;25997;50.214;19.354;2022-10-16T00:39:51;98009.28;;;15.45;45.97
40285;BME280;25997;50.214;19.354;2022-10-16T00:42:54;98015.44;;;15.45;45.95
40285;BME280;25997;50.214;19.354;2022-10-16T00:45:56;98017.22;;;15.42;46.05
40285;BME280;25997;50.214;19.354;2022-10-16T00:49:03;98011.06;;;15.46;45.94
40285;BME280;25997;50.214;19.354;2022-10-16T00:52:07;98011.91;;;15.45;46.15
40285;BME280;25997;50.214;19.354;2022-10-16T00:55:10;98012.81;;;15.44;46.30
40285;BME280;25997;50.214;19.354;2022-10-16T00:58:12;98006.59;;;15.37;46.03
40285;BME280;25997;50.214;19.354;2022-10-16T01:01:15;98007.44;;;15.35;46.40
40285;BME280;25997;50.214;19.354;2022-10-16T01:04:19;98011.00;;;15.35;46.27
40285;BME280;25997;50.214;19.354;2022-10-16T01:07:33;98007.41;;;15.32;46.31
40285;BME280;25997;50.214;19.354;2022-10-16T01:10:40;98010.03;;;15.27;46.35
40285;BME280;25997;50.214;19.354;2022-10-16T01:13:51;98014.44;;;15.24;46.42
40285;BME280;25997;50.214;19.354;2022-10-16T01:16:59;98019.69;;;15.18;46.70
40285;BME280;25997;50.214;19.354;2022-10-16T01:20:09;98022.31;;;15.13;46.81
40285;BME280;25997;50.214;19.354;2022-10-16T01:23:25;98026.69;;;15.14;46.97
40285;BME280;25997;50.214;19.354;2022-10-16T01:26:44;98020.53;;;15.15;46.81
40285;BME280;25997;50.214;19.354;2022-10-16T01:29:54;98025.81;;;15.11;47.07
40285;BME280;25997;50.214;19.354;2022-10-16T01:33:02;98021.38;;;15.07;47.23
40285;BME280;25997;50.214;19.354;2022-10-16T01:36:10;98032.78;;;15.02;47.17
40285;BME280;25997;50.214;19.354;2022-10-16T01:39:15;98023.94;;;14.99;47.33
40285;BME280;25997;50.214;19.354;2022-10-16T01:42:25;98019.47;;;14.93;47.33
40285;BME280;25997;50.214;19.354;2022-10-16T01:45:32;98009.78;;;14.91;47.69
40285;BME280;25997;50.214;19.354;2022-10-16T01:48:36;98009.75;;;14.88;47.59
40285;BME280;25997;50.214;19.354;2022-10-16T01:51:39;98011.53;;;14.93;47.58
40285;BME280;25997;50.214;19.354;2022-10-16T01:54:46;98021.25;;;14.96;47.49
40285;BME280;25997;50.214;19.354;2022-10-16T01:57:51;98015.97;;;14.96;47.35
40285;BME280;25997;50.214;19.354;2022-10-16T02:00:56;98023.91;;;14.96;47.64
40285;BME280;25997;50.214;19.354;2022-10-16T02:04:13;98036.13;;;14.83;47.97
40285;BME280;25997;50.214;19.354;2022-10-16T02:07:17;98034.13;;;14.61;48.27
40285;BME280;25997;50.214;19.354;2022-10-16T02:10:20;98025.25;;;14.53;48.39
40285;BME280;25997;50.214;19.354;2022-10-16T02:13:27;98032.13;;;14.38;48.66
40285;BME280;25997;50.214;19.354;2022-10-16T02:16:35;98034.78;;;14.41;48.58
40285;BME280;25997;50.214;19.354;2022-10-16T02:19:38;98026.03;;;14.45;48.39
40285;BME280;25997;50.214;19.354;2022-10-16T02:22:45;98028.63;;;14.40;48.36
40285;BME280;25997;50.214;19.354;2022-10-16T02:25:49;98032.03;;;14.31;48.27
40285;BME280;25997;50.214;19.354;2022-10-16T02:28:57;98039.13;;;14.31;48.47
40285;BME280;25997;50.214;19.354;2022-10-16T02:32:05;98036.38;;;14.25;48.39
40285;BME280;25997;50.214;19.354;2022-10-16T02:35:10;98039.16;;;14.37;48.06
40285;BME280;25997;50.214;19.354;2022-10-16T02:38:14;98040.94;;;14.38;48.08
40285;BME280;25997;50.214;19.354;2022-10-16T02:41:18;98035.72;;;14.44;47.96
40285;BME280;25997;50.214;19.354;2022-10-16T02:44:22;98038.31;;;14.40;47.94
40285;BME280;25997;50.214;19.354;2022-10-16T02:47:26;98039.06;;;14.29;48.15
40285;BME280;25997;50.214;19.354;2022-10-16T02:50:29;98033.63;;;14.16;48.24
40285;BME280;25997;50.214;19.354;2022-10-16T02:53:32;98049.25;;;13.98;48.66
40285;BME280;25997;50.214;19.354;2022-10-16T02:56:34;98039.34;;;13.82;48.78
40285;BME280;25997;50.214;19.354;2022-10-16T02:59:37;98033.88;;;13.67;49.15
40285;BME280;25997;50.214;19.354;2022-10-16T03:02:41;98033.75;;;13.59;49.09
40285;BME280;25997;50.214;19.354;2022-10-16T03:05:44;98038.94;;;13.53;49.27
40285;BME280;25997;50.214;19.354;2022-10-16T03:08:47;98045.13;;;13.55;49.15
40285;BME280;25997;50.214;19.354;2022-10-16T03:11:50;98045.97;;;13.52;49.26
40285;BME280;25997;50.214;19.354;2022-10-16T03:14:53;98047.72;;;13.53;49.03
40285;BME280;25997;50.214;19.354;2022-10-16T03:17:58;98053.06;;;13.58;49.01
40285;BME280;25997;50.214;19.354;2022-10-16T03:21:01;98052.16;;;13.54;49.22
40285;BME280;25997;50.214;19.354;2022-10-16T03:24:04;98060.91;;;13.53;49.31
40285;BME280;25997;50.214;19.354;2022-10-16T03:27:07;98047.84;;;13.59;49.35
40285;BME280;25997;50.214;19.354;2022-10-16T03:30:10;98059.38;;;13.69;49.09
40285;BME280;25997;50.214;19.354;2022-10-16T03:33:14;98066.44;;;13.70;49.33
40285;BME280;25997;50.214;19.354;2022-10-16T03:36:17;98069.94;;;13.68;49.26
40285;BME280;25997;50.214;19.354;2022-10-16T03:39:19;98074.31;;;13.67;49.13
40285;BME280;25997;50.214;19.354;2022-10-16T03:42:22;98079.56;;;13.66;49.32
40285;BME280;25997;50.214;19.354;2022-10-16T03:45:25;98083.06;;;13.63;49.26
40285;BME280;25997;50.214;19.354;2022-10-16T03:48:29;98075.19;;;13.66;49.21
40285;BME280;25997;50.214;19.354;2022-10-16T03:51:33;98078.75;;;13.68;49.10
40285;BME280;25997;50.214;19.354;2022-10-16T03:54:35;98076.94;;;13.64;49.38
40285;BME280;25997;50.214;19.354;2022-10-16T03:57:38;98083.88;;;13.57;49.25
40285;BME280;25997;50.214;19.354;2022-10-16T04:00:41;98087.28;;;13.52;49.82
40285;BME280;25997;50.214;19.354;2022-10-16T04:03:45;98077.66;;;13.55;49.56
40285;BME280;25997;50.214;19.354;2022-10-16T04:06:48;98084.78;;;13.59;49.55
40285;BME280;25997;50.214;19.354;2022-10-16T04:09:50;98084.84;;;13.66;49.45
40285;BME280;25997;50.214;19.354;2022-10-16T04:12:53;98085.75;;;13.68;49.36
40285;BME280;25997;50.214;19.354;2022-10-16T04:15:56;98081.31;;;13.62;49.16
40285;BME280;25997;50.214;19.354;2022-10-16T04:19:00;98081.16;;;13.53;49.44
40285;BME280;25997;50.214;19.354;2022-10-16T04:22:03;98086.25;;;13.41;49.89
40285;BME280;25997;50.214;19.354;2022-10-16T04:25:06;98089.63;;;13.31;49.92
40285;BME280;25997;50.214;19.354;2022-10-16T04:28:09;98085.16;;;13.28;50.11
40285;BME280;25997;50.214;19.354;2022-10-16T04:31:12;98086.09;;;13.30;50.15
40285;BME280;25997;50.214;19.354;2022-10-16T04:34:16;98092.25;;;13.31;50.19
40285;BME280;25997;50.214;19.354;2022-10-16T04:37:18;98095.75;;;13.31;50.18
40285;BME280;25997;50.214;19.354;2022-10-16T04:40:21;98093.09;;;13.30;50.32
40285;BME280;25997;50.214;19.354;2022-10-16T04:43:24;98091.44;;;13.36;50.12
40285;BME280;25997;50.214;19.354;2022-10-16T04:46:27;98090.59;;;13.37;50.16
40285;BME280;25997;50.214;19.354;2022-10-16T04:49:31;98090.59;;;13.39;50.34
40285;BME280;25997;50.214;19.354;2022-10-16T04:52:33;98094.22;;;13.44;50.18
40285;BME280;25997;50.214;19.354;2022-10-16T04:55:36;98088.94;;;13.45;50.01
40285;BME280;25997;50.214;19.354;2022-10-16T04:58:39;98086.38;;;13.48;50.07
40285;BME280;25997;50.214;19.354;2022-10-16T05:01:41;98083.81;;;13.53;50.03
40285;BME280;25997;50.214;19.354;2022-10-16T05:04:45;98090.88;;;13.57;50.12
40285;BME280;25997;50.214;19.354;2022-10-16T05:07:48;98095.22;;;13.53;50.33
40285;BME280;25997;50.214;19.354;2022-10-16T05:10:51;98096.19;;;13.58;50.20
40285;BME280;25997;50.214;19.354;2022-10-16T05:13:54;98084.78;;;13.61;50.17
40285;BME280;25997;50.214;19.354;2022-10-16T05:16:56;98085.69;;;13.63;49.97
40285;BME280;25997;50.214;19.354;2022-10-16T05:20:00;98092.69;;;13.61;50.06
40285;BME280;25997;50.214;19.354;2022-10-16T05:23:04;98094.44;;;13.60;50.30
40285;BME280;25997;50.214;19.354;2022-10-16T05:26:07;98097.16;;;13.65;50.36
40285;BME280;25997;50.214;19.354;2022-10-16T05:29:10;98101.66;;;13.72;50.17
40285;BME280;25997;50.214;19.354;2022-10-16T05:32:13;98100.84;;;13.76;49.96
40285;BME280;25997;50.214;19.354;2022-10-16T05:35:18;98107.00;;;13.77;49.97
40285;BME280;25997;50.214;19.354;2022-10-16T05:38:21;98110.56;;;13.79;50.04
40285;BME280;25997;50.214;19.354;2022-10-16T05:41:23;98115.84;;;13.79;50.13
40285;BME280;25997;50.214;19.354;2022-10-16T05:44:27;98118.41;;;13.76;50.16
40285;BME280;25997;50.214;19.354;2022-10-16T05:47:29;98127.31;;;13.81;50.10
40285;BME280;25997;50.214;19.354;2022-10-16T05:50:33;98129.94;;;13.81;50.19
40285;BME280;25997;50.214;19.354;2022-10-16T05:53:37;98136.06;;;13.78;50.28
40285;BME280;25997;50.214;19.354;2022-10-16T05:56:40;98140.41;;;13.75;50.33
40285;BME280;25997;50.214;19.354;2022-10-16T05:59:43;98145.69;;;13.76;50.39
40285;BME280;25997;50.214;19.354;2022-10-16T06:02:46;98151.13;;;13.87;50.40
40285;BME280;25997;50.214;19.354;2022-10-16T06:05:51;98146.91;;;13.96;50.27
40285;BME280;25997;50.214;19.354;2022-10-16T06:08:55;98165.53;;;14.07;49.60
40285;BME280;25997;50.214;19.354;2022-10-16T06:11:58;98177.56;;;13.88;49.25
40285;BME280;25997;50.214;19.354;2022-10-16T06:15:00;98185.97;;;13.63;49.31
40285;BME280;25997;50.214;19.354;2022-10-16T06:18:03;98187.47;;;13.47;49.68
40285;BME280;25997;50.214;19.354;2022-10-16T06:21:11;98186.53;;;13.44;49.81
40285;BME280;25997;50.214;19.354;2022-10-16T06:24:14;98195.38;;;13.49;50.08
40285;BME280;25997;50.214;19.354;2022-10-16T06:27:17;98193.78;;;13.57;50.16
40285;BME280;25997;50.214;19.354;2022-10-16T06:30:20;98186.13;;;13.74;50.06
40285;BME280;25997;50.214;19.354;2022-10-16T06:33:22;98200.50;;;13.91;50.13
40285;BME280;25997;50.214;19.354;2022-10-16T06:36:26;98196.31;;;14.03;50.35
40285;BME280;25997;50.214;19.354;2022-10-16T06:39:29;98198.34;;;14.22;50.21
40285;BME280;25997;50.214;19.354;2022-10-16T06:42:31;98211.78;;;14.39;49.99
40285;BME280;25997;50.214;19.354;2022-10-16T06:45:34;98206.81;;;14.62;49.63
40285;BME280;25997;50.214;19.354;2022-10-16T06:48:37;98207.91;;;14.80;49.59
40285;BME280;25997;50.214;19.354;2022-10-16T06:51:41;98219.59;;;14.96;49.55
40285;BME280;25997;50.214;19.354;2022-10-16T06:54:44;98215.41;;;15.15;49.16
40285;BME280;25997;50.214;19.354;2022-10-16T06:57:47;98212.00;;;15.29;49.29
40285;BME280;25997;50.214;19.354;2022-10-16T07:00:55;98225.44;;;15.47;48.86
40285;BME280;25997;50.214;19.354;2022-10-16T07:03:58;98232.56;;;15.56;48.83
40285;BME280;25997;50.214;19.354;2022-10-16T07:07:02;98220.34;;;15.65;48.60
40285;BME280;25997;50.214;19.354;2022-10-16T07:10:05;98219.53;;;15.71;48.35
40285;BME280;25997;50.214;19.354;2022-10-16T07:13:08;98227.59;;;15.86;47.97
40285;BME280;25997;50.214;19.354;2022-10-16T07:16:15;98226.88;;;16.08;47.70
40285;BME280;25997;50.214;19.354;2022-10-16T07:19:18;98221.72;;;16.31;47.66
40285;BME280;25997;50.214;19.354;2022-10-16T07:22:22;98233.34;;;16.49;47.25
40285;BME280;25997;50.214;19.354;2022-10-16T07:25:24;98237.00;;;16.73;47.01
40285;BME280;25997;50.214;19.354;2022-10-16T07:28:27;98232.69;;;16.94;46.62
40285;BME280;25997;50.214;19.354;2022-10-16T07:31:30;98230.94;;;17.11;46.13
40285;BME280;25997;50.214;19.354;2022-10-16T07:34:33;98234.59;;;17.33;45.96
40285;BME280;25997;50.214;19.354;2022-10-16T07:37:37;98240.81;;;17.58;45.63
40285;BME280;25997;50.214;19.354;2022-10-16T07:40:39;98232.88;;;17.65;45.58
40285;BME280;25997;50.214;19.354;2022-10-16T07:43:45;98234.69;;;17.80;45.04
40285;BME280;25997;50.214;19.354;2022-10-16T07:46:48;98238.19;;;17.85;45.09
40285;BME280;25997;50.214;19.354;2022-10-16T07:49:50;98241.75;;;17.91;44.64
40285;BME280;25997;50.214;19.354;2022-10-16T07:52:55;98247.09;;;18.01;44.49
40285;BME280;25997;50.214;19.354;2022-10-16T07:55:58;98254.19;;;18.06;44.16
40285;BME280;25997;50.214;19.354;2022-10-16T07:59:01;98253.28;;;18.22;44.09
40285;BME280;25997;50.214;19.354;2022-10-16T08:02:03;98264.78;;;18.23;43.46
40285;BME280;25997;50.214;19.354;2022-10-16T08:05:07;98254.19;;;18.15;43.41
40285;BME280;25997;50.214;19.354;2022-10-16T08:08:14;98261.28;;;18.18;43.31
40285;BME280;25997;50.214;19.354;2022-10-16T08:11:17;98259.47;;;18.39;42.86
40285;BME280;25997;50.214;19.354;2022-10-16T08:14:20;98260.34;;;18.47;42.73
40285;BME280;25997;50.214;19.354;2022-10-16T08:17:22;98262.13;;;18.67;42.23
40285;BME280;25997;50.214;19.354;2022-10-16T08:20:25;98264.75;;;18.70;42.17
40285;BME280;25997;50.214;19.354;2022-10-16T08:23:29;98266.50;;;18.81;42.07
40285;BME280;25997;50.214;19.354;2022-10-16T08:26:32;98276.25;;;18.76;41.85
40285;BME280;25997;50.214;19.354;2022-10-16T08:29:35;98272.75;;;18.42;42.25
40285;BME280;25997;50.214;19.354;2022-10-16T08:32:38;98274.56;;;18.15;42.80
40285;BME280;25997;50.214;19.354;2022-10-16T08:35:42;98267.47;;;18.21;42.48
40285;BME280;25997;50.214;19.354;2022-10-16T08:38:49;98273.63;;;18.38;42.35
40285;BME280;25997;50.214;19.354;2022-10-16T08:41:57;98282.50;;;18.52;42.24
40285;BME280;25997;50.214;19.354;2022-10-16T08:45:27;98291.38;;;18.44;42.20
40285;BME280;25997;50.214;19.354;2022-10-16T08:48:35;98293.09;;;18.63;42.35
40285;BME280;25997;50.214;19.354;2022-10-16T08:51:40;98286.91;;;18.76;42.58
40285;BME280;25997;50.214;19.354;2022-10-16T08:54:47;98288.63;;;18.95;41.66
40285;BME280;25997;50.214;19.354;2022-10-16T08:57:52;98289.50;;;18.97;41.83
40285;BME280;25997;50.214;19.354;2022-10-16T09:00:56;98299.19;;;19.16;41.13
40285;BME280;25997;50.214;19.354;2022-10-16T09:04:14;98288.56;;;19.10;40.70
40285;BME280;25997;50.214;19.354;2022-10-16T09:07:28;98284.09;;;19.18;40.84
40285;BME280;25997;50.214;19.354;2022-10-16T09:10:46;98283.13;;;19.41;40.55
40285;BME280;25997;50.214;19.354;2022-10-16T09:13:59;98288.28;;;19.69;40.84
40285;BME280;25997;50.214;19.354;2022-10-16T09:17:18;98284.53;;;19.99;39.17
40285;BME280;25997;50.214;19.354;2022-10-16T09:20:30;98300.66;;;19.81;40.38
40285;BME280;25997;50.214;19.354;2022-10-16T09:23:37;98292.63;;;19.85;39.69
40285;BME280;25997;50.214;19.354;2022-10-16T09:26:41;98285.38;;;20.07;40.44
40285;BME280;25997;50.214;19.354;2022-10-16T09:29:44;98293.38;;;20.10;39.77
40285;BME280;25997;50.214;19.354;2022-10-16T09:32:50;98297.66;;;20.31;38.92
40285;BME280;25997;50.214;19.354;2022-10-16T09:35:56;98297.59;;;20.35;39.44
40285;BME280;25997;50.214;19.354;2022-10-16T09:39:05;98295.81;;;20.37;38.71
40285;BME280;25997;50.214;19.354;2022-10-16T09:42:13;98303.69;;;20.49;39.11
40285;BME280;25997;50.214;19.354;2022-10-16T09:45:21;98300.88;;;20.66;39.01
40285;BME280;25997;50.214;19.354;2022-10-16T09:48:28;98307.03;;;20.75;38.58
40285;BME280;25997;50.214;19.354;2022-10-16T09:51:34;98307.13;;;20.63;37.87
40285;BME280;25997;50.214;19.354;2022-10-16T09:54:37;98305.34;;;20.61;38.96
40285;BME280;25997;50.214;19.354;2022-10-16T09:57:53;98308.81;;;20.75;38.40
40285;BME280;25997;50.214;19.354;2022-10-16T10:00:56;98314.81;;;20.94;38.50
40285;BME280;25997;50.214;19.354;2022-10-16T10:03:59;98321.78;;;21.10;37.92
40285;BME280;25997;50.214;19.354;2022-10-16T10:07:04;98326.84;;;21.35;37.15
40285;BME280;25997;50.214;19.354;2022-10-16T10:10:20;98323.06;;;21.52;36.94
40285;BME280;25997;50.214;19.354;2022-10-16T10:13:25;98325.97;;;21.29;37.40
40285;BME280;25997;50.214;19.354;2022-10-16T10:16:29;98324.22;;;21.28;37.56
40285;BME280;25997;50.214;19.354;2022-10-16T10:19:38;98324.63;;;21.68;37.05
40285;BME280;25997;50.214;19.354;2022-10-16T10:22:42;98310.75;;;22.04;37.21
40285;BME280;25997;50.214;19.354;2022-10-16T10:25:53;98314.16;;;22.15;36.06
40285;BME280;25997;50.214;19.354;2022-10-16T10:29:06;98317.44;;;22.32;36.13
40285;BME280;25997;50.214;19.354;2022-10-16T10:32:22;98316.94;;;22.64;35.74
40285;BME280;25997;50.214;19.354;2022-10-16T10:35:32;98317.19;;;22.46;35.97
40285;BME280;25997;50.214;19.354;2022-10-16T10:38:47;98321.03;;;22.31;36.74
40285;BME280;25997;50.214;19.354;2022-10-16T10:42:07;98328.47;;;22.12;36.24
40285;BME280;25997;50.214;19.354;2022-10-16T10:45:25;98319.25;;;21.69;36.63
40285;BME280;25997;50.214;19.354;2022-10-16T10:48:51;98317.94;;;21.32;36.85
40285;BME280;25997;50.214;19.354;2022-10-16T10:52:02;98323.31;;;21.29;37.45
40285;BME280;25997;50.214;19.354;2022-10-16T10:55:19;98327.97;;;21.12;37.52
40285;BME280;25997;50.214;19.354;2022-10-16T10:58:50;98316.56;;;20.99;37.47
40285;BME280;25997;50.214;19.354;2022-10-16T11:02:01;98320.03;;;21.06;37.72
40285;BME280;25997;50.214;19.354;2022-10-16T11:05:31;98315.78;;;20.88;37.95
40285;BME280;25997;50.214;19.354;2022-10-16T11:08:40;98313.97;;;20.92;38.35
40285;BME280;25997;50.214;19.354;2022-10-16T11:11:47;98305.13;;;20.88;38.25
40285;BME280;25997;50.214;19.354;2022-10-16T11:14:57;98312.22;;;20.88;38.33
40285;BME280;25997;50.214;19.354;2022-10-16T11:18:05;98310.69;;;20.64;38.29
40285;BME280;25997;50.214;19.354;2022-10-16T11:21:12;98314.31;;;20.55;38.43
40285;BME280;25997;50.214;19.354;2022-10-16T11:24:20;98301.59;;;20.83;38.43
40285;BME280;25997;50.214;19.354;2022-10-16T11:27:33;98314.66;;;21.07;37.72
40285;BME280;25997;50.214;19.354;2022-10-16T11:30:41;98314.59;;;21.15;37.24
40285;BME280;25997;50.214;19.354;2022-10-16T11:33:51;98322.56;;;21.19;37.26
40285;BME280;25997;50.214;19.354;2022-10-16T11:37:00;98314.50;;;21.22;37.64
40285;BME280;25997;50.214;19.354;2022-10-16T11:40:17;98318.91;;;21.25;37.22
40285;BME280;25997;50.214;19.354;2022-10-16T11:43:25;98320.84;;;21.12;37.09
40285;BME280;25997;50.214;19.354;2022-10-16T11:46:31;98321.31;;;20.68;37.95
40285;BME280;25997;50.214;19.354;2022-10-16T11:49:37;98326.31;;;21.02;37.81
40285;BME280;25997;50.214;19.354;2022-10-16T11:52:44;98320.78;;;21.20;37.52
40285;BME280;25997;50.214;19.354;2022-10-16T11:55:54;98314.81;;;21.68;37.68
40285;BME280;25997;50.214;19.354;2022-10-16T11:59:00;98315.69;;;22.31;36.89
40285;BME280;25997;50.214;19.354;2022-10-16T12:02:25;98327.19;;;22.88;36.17
40285;BME280;25997;50.214;19.354;2022-10-16T12:05:39;98328.50;;;23.12;34.89
40285;BME280;25997;50.214;19.354;2022-10-16T12:08:49;98329.00;;;22.86;35.43
40285;BME280;25997;50.214;19.354;2022-10-16T12:11:52;98324.63;;;22.80;35.15
40285;BME280;25997;50.214;19.354;2022-10-16T12:15:02;98325.13;;;23.02;34.78
40285;BME280;25997;50.214;19.354;2022-10-16T12:18:20;98333.34;;;23.39;33.93
40285;BME280;25997;50.214;19.354;2022-10-16T12:21:30;98335.81;;;23.49;33.57
40285;BME280;25997;50.214;19.354;2022-10-16T12:24:35;98325.16;;;23.46;34.03
40285;BME280;25997;50.214;19.354;2022-10-16T12:27:39;98337.47;;;23.96;34.19
40285;BME280;25997;50.214;19.354;2022-10-16T12:30:42;98336.91;;;24.20;33.86
40285;BME280;25997;50.214;19.354;2022-10-16T12:33:58;98330.84;;;24.49;32.04
40285;BME280;25997;50.214;19.354;2022-10-16T12:37:13;98341.53;;;24.52;32.39
40285;BME280;25997;50.214;19.354;2022-10-16T12:40:26;98345.25;;;23.67;33.04
40285;BME280;25997;50.214;19.354;2022-10-16T12:43:39;98344.94;;;22.93;33.62
40285;BME280;25997;50.214;19.354;2022-10-16T12:46:43;98356.16;;;22.65;34.71
40285;BME280;25997;50.214;19.354;2022-10-16T12:49:49;98350.63;;;22.22;34.85
40285;BME280;25997;50.214;19.354;2022-10-16T12:52:54;98340.50;;;22.39;34.77
40285;BME280;25997;50.214;19.354;2022-10-16T12:56:03;98349.88;;;22.12;35.00
40285;BME280;25997;50.214;19.354;2022-10-16T12:59:18;98353.44;;;22.13;35.46
40285;BME280;25997;50.214;19.354;2022-10-16T13:02:43;98347.47;;;22.49;34.89
40285;BME280;25997;50.214;19.354;2022-10-16T13:05:57;98354.78;;;22.93;34.83
40285;BME280;25997;50.214;19.354;2022-10-16T13:09:19;98348.97;;;22.67;34.69
40285;BME280;25997;50.214;19.354;2022-10-16T13:12:38;98361.50;;;23.14;33.89
40285;BME280;25997;50.214;19.354;2022-10-16T13:15:55;98359.69;;;23.16;34.35
40285;BME280;25997;50.214;19.354;2022-10-16T13:19:08;98362.03;;;23.35;34.13
40285;BME280;25997;50.214;19.354;2022-10-16T13:22:19;98366.63;;;23.29;33.76
40285;BME280;25997;50.214;19.354;2022-10-16T13:25:32;98359.28;;;22.89;34.02
40285;BME280;25997;50.214;19.354;2022-10-16T13:28:38;98360.88;;;23.01;34.61
40285;BME280;25997;50.214;19.354;2022-10-16T13:31:43;98361.06;;;22.90;34.48
40285;BME280;25997;50.214;19.354;2022-10-16T13:34:48;98362.59;;;23.04;34.50
40285;BME280;25997;50.214;19.354;2022-10-16T13:37:51;98362.81;;;22.91;34.39
40285;BME280;25997;50.214;19.354;2022-10-16T13:40:57;98366.88;;;22.66;34.37
40285;BME280;25997;50.214;19.354;2022-10-16T13:44:00;98369.19;;;23.35;34.54
40285;BME280;25997;50.214;19.354;2022-10-16T13:47:03;98369.13;;;23.82;33.79
40285;BME280;25997;50.214;19.354;2022-10-16T13:50:11;98374.25;;;23.93;32.96
40285;BME280;25997;50.214;19.354;2022-10-16T13:53:14;98375.81;;;23.60;33.48
40285;BME280;25997;50.214;19.354;2022-10-16T13:56:20;98368.09;;;22.98;34.04
40285;BME280;25997;50.214;19.354;2022-10-16T13:59:25;98373.78;;;22.78;34.64
40285;BME280;25997;50.214;19.354;2022-10-16T14:02:31;98361.28;;;22.24;35.35
40285;BME280;25997;50.214;19.354;2022-10-16T14:05:36;98356.56;;;21.80;35.81
40285;BME280;25997;50.214;19.354;2022-10-16T14:08:51;98341.00;;;21.43;36.50
40285;BME280;25997;50.214;19.354;2022-10-16T14:11:58;98343.69;;;21.40;36.72
40285;BME280;25997;50.214;19.354;2022-10-16T14:15:03;98338.31;;;22.10;35.95
40285;BME280;25997;50.214;19.354;2022-10-16T14:18:06;98352.31;;;22.81;35.17
40285;BME280;25997;50.214;19.354;2022-10-16T14:21:13;98343.22;;;23.37;34.34
40285;BME280;25997;50.214;19.354;2022-10-16T14:24:26;98343.31;;;23.74;33.84
40285;BME280;25997;50.214;19.354;2022-10-16T14:27:33;98347.31;;;23.96;33.75
40285;BME280;25997;50.214;19.354;2022-10-16T14:30:36;98354.13;;;24.12;33.68
40285;BME280;25997;50.214;19.354;2022-10-16T14:33:39;98374.78;;;23.66;33.87
40285;BME280;25997;50.214;19.354;2022-10-16T14:36:41;98368.38;;;23.73;34.33
40285;BME280;25997;50.214;19.354;2022-10-16T14:39:49;98393.38;;;23.78;33.62
40285;BME280;25997;50.214;19.354;2022-10-16T14:42:53;98388.25;;;23.64;33.99
40285;BME280;25997;50.214;19.354;2022-10-16T14:45:57;98391.16;;;23.05;34.48
40285;BME280;25997;50.214;19.354;2022-10-16T14:49:03;98393.38;;;22.81;34.77
40285;BME280;25997;50.214;19.354;2022-10-16T14:52:11;98404.81;;;22.35;35.68
40285;BME280;25997;50.214;19.354;2022-10-16T14:55:14;98398.91;;;22.11;36.03
40285;BME280;25997;50.214;19.354;2022-10-16T14:58:20;98398.66;;;21.64;36.48
40285;BME280;25997;50.214;19.354;2022-10-16T15:01:24;98396.50;;;21.17;37.35
40285;BME280;25997;50.214;19.354;2022-10-16T15:04:27;98396.28;;;21.38;37.10
40285;BME280;25997;50.214;19.354;2022-10-16T15:07:29;98397.16;;;21.42;37.17
40285;BME280;25997;50.214;19.354;2022-10-16T15:10:35;98393.56;;;21.41;37.34
40285;BME280;25997;50.214;19.354;2022-10-16T15:13:42;98399.28;;;21.84;36.87
40285;BME280;25997;50.214;19.354;2022-10-16T15:16:44;98403.69;;;21.87;36.69
40285;BME280;25997;50.214;19.354;2022-10-16T15:19:47;98398.59;;;21.69;36.92
40285;BME280;25997;50.214;19.354;2022-10-16T15:22:50;98392.75;;;21.32;37.45
40285;BME280;25997;50.214;19.354;2022-10-16T15:25:54;98399.38;;;20.96;37.83
40285;BME280;25997;50.214;19.354;2022-10-16T15:28:58;98387.16;;;20.71;37.90
40285;BME280;25997;50.214;19.354;2022-10-16T15:32:00;98389.09;;;20.51;38.22
40285;BME280;25997;50.214;19.354;2022-10-16T15:35:04;98391.00;;;20.31;38.53
40285;BME280;25997;50.214;19.354;2022-10-16T15:38:11;98400.94;;;20.08;39.02
40285;BME280;25997;50.214;19.354;2022-10-16T15:41:14;98408.09;;;19.89;39.15
40285;BME280;25997;50.214;19.354;2022-10-16T15:44:19;98408.19;;;19.77;39.64
40285;BME280;25997;50.214;19.354;2022-10-16T15:47:24;98405.59;;;19.62;39.83
40285;BME280;25997;50.214;19.354;2022-10-16T15:50:27;98402.09;;;19.43;40.08
40285;BME280;25997;50.214;19.354;2022-10-16T15:53:29;98402.13;;;19.31;40.28
40285;BME280;25997;50.214;19.354;2022-10-16T15:56:32;98398.59;;;19.21;40.49
40285;BME280;25997;50.214;19.354;2022-10-16T15:59:39;98411.94;;;19.11;40.91
40285;BME280;25997;50.214;19.354;2022-10-16T16:02:42;98406.63;;;19.02;40.97
40285;BME280;25997;50.214;19.354;2022-10-16T16:05:46;98418.16;;;18.92;41.08
40285;BME280;25997;50.214;19.354;2022-10-16T16:08:48;98421.72;;;18.79;41.25
40285;BME280;25997;50.214;19.354;2022-10-16T16:11:51;98427.94;;;18.76;41.44